createdAt,value
2023-02-15T00:01:21.172Z,79.80
2023-02-15T00:03:57.547Z,79.62
2023-02-15T00:06:35.070Z,79.49
2023-02-15T00:09:12.556Z,79.54
2023-02-15T00:11:52.093Z,79.61
2023-02-15T00:14:29.634Z,79.51
2023-02-15T00:17:06.175Z,79.42
2023-02-15T00:19:42.511Z,79.39
2023-02-15T00:22:18.712Z,79.40
2023-02-15T00:24:55.023Z,79.40
2023-02-15T00:27:31.622Z,79.43
2023-02-15T00:30:10.010Z,79.43
2023-02-15T00:32:46.370Z,79.61
2023-02-15T00:35:22.897Z,79.61
2023-02-15T00:37:59.560Z,79.60
2023-02-15T00:40:35.879Z,79.51
2023-02-15T00:43:12.121Z,79.43
2023-02-15T00:45:53.768Z,79.41
2023-02-15T00:48:30.758Z,79.45
2023-02-15T00:51:07.388Z,79.49
2023-02-15T00:53:43.851Z,79.54
2023-02-15T00:56:20.322Z,79.60
2023-02-15T00:58:56.654Z,79.64
2023-02-15T01:01:33.000Z,79.63
2023-02-15T01:04:10.251Z,79.55
2023-02-15T01:06:46.703Z,79.47
2023-02-15T01:09:23.425Z,79.41
2023-02-15T01:11:59.852Z,79.41
2023-02-15T01:14:36.542Z,79.40
2023-02-15T01:17:14.854Z,79.47
2023-02-15T01:19:52.369Z,79.52
2023-02-15T01:22:29.158Z,79.55
2023-02-15T01:25:05.928Z,79.55
2023-02-15T01:27:42.238Z,79.56
2023-02-15T01:30:20.707Z,79.54
2023-02-15T01:32:58.359Z,79.47
2023-02-15T01:35:35.247Z,79.46
2023-02-15T01:38:11.596Z,79.44
2023-02-15T01:40:47.953Z,79.43
2023-02-15T01:43:40.904Z,79.41
2023-02-15T01:46:21.312Z,79.42
2023-02-15T01:49:11.078Z,79.51
2023-02-15T01:51:53.561Z,79.55
2023-02-15T01:54:36.970Z,79.57
2023-02-15T01:57:21.712Z,79.55
2023-02-15T02:00:04.051Z,79.58
2023-02-15T02:02:56.215Z,79.62
2023-02-15T02:05:36.444Z,79.71
2023-02-15T02:08:14.268Z,79.80
2023-02-15T02:10:50.672Z,79.86
2023-02-15T02:13:27.144Z,79.92
2023-02-15T02:16:13.852Z,79.91
2023-02-15T02:19:12.291Z,79.92
2023-02-15T02:22:52.439Z,79.93
2023-02-15T02:26:43.126Z,79.96
2023-02-15T02:30:38.293Z,80.07
2023-02-15T02:33:56.368Z,80.10
2023-02-15T02:36:48.530Z,80.11
2023-02-15T02:39:44.825Z,80.12
2023-02-15T02:42:34.545Z,80.31
2023-02-15T02:45:18.846Z,80.38
2023-02-15T02:48:03.129Z,80.56
2023-02-15T02:50:43.195Z,80.62
2023-02-15T02:53:19.667Z,80.68
2023-02-15T02:56:01.843Z,80.71
2023-02-15T02:58:48.315Z,80.77
2023-02-15T03:01:34.222Z,80.65
2023-02-15T03:04:16.532Z,80.52
2023-02-15T03:06:57.503Z,80.54
2023-02-15T03:09:43.639Z,80.31
2023-02-15T03:12:26.668Z,80.20
2023-02-15T03:15:12.131Z,80.16
2023-02-15T03:17:55.473Z,80.17
2023-02-15T03:20:38.890Z,80.24
2023-02-15T03:23:24.122Z,80.36
2023-02-15T03:26:08.472Z,80.48
2023-02-15T03:28:52.071Z,80.53
2023-02-15T03:31:34.077Z,80.59
2023-02-15T03:34:15.348Z,80.63
2023-02-15T03:37:01.948Z,80.68
2023-02-15T03:39:45.444Z,80.76
2023-02-15T03:42:31.847Z,80.88
2023-02-15T03:45:16.916Z,80.96
2023-02-15T03:47:58.070Z,81.06
2023-02-15T03:50:55.910Z,81.07
2023-02-15T03:53:32.898Z,81.11
2023-02-15T03:56:09.659Z,81.12
2023-02-15T03:59:03.349Z,81.28
2023-02-15T04:02:01.866Z,81.32
2023-02-15T04:04:48.387Z,81.09
2023-02-15T04:07:25.184Z,80.92
2023-02-15T04:10:18.672Z,81.05
2023-02-15T04:12:54.985Z,81.12
2023-02-15T04:15:49.285Z,81.11
2023-02-15T04:18:43.450Z,81.19
2023-02-15T04:21:37.789Z,81.22
2023-02-15T04:24:33.023Z,81.08
2023-02-15T04:27:10.181Z,81.12
2023-02-15T04:29:46.469Z,81.46
2023-02-15T04:32:22.992Z,81.45
2023-02-15T04:34:59.389Z,81.42
2023-02-15T04:37:35.666Z,81.44
2023-02-15T04:40:18.681Z,81.44
2023-02-15T04:42:55.905Z,81.42
2023-02-15T04:45:32.256Z,81.57
2023-02-15T04:48:09.726Z,81.50
2023-02-15T04:50:46.389Z,81.49
2023-02-15T04:53:22.869Z,81.46
2023-02-15T04:55:59.569Z,81.40
2023-02-15T04:58:36.278Z,81.47
2023-02-15T05:01:13.277Z,81.52
2023-02-15T05:03:49.849Z,81.53
2023-02-15T05:06:26.749Z,81.50
2023-02-15T05:09:03.217Z,81.67
2023-02-15T05:11:39.515Z,81.57
2023-02-15T05:14:15.847Z,81.63
2023-02-15T05:16:52.174Z,81.68
2023-02-15T05:19:28.825Z,81.63
2023-02-15T05:22:05.111Z,81.52
2023-02-15T05:24:59.126Z,81.56
2023-02-15T05:27:53.172Z,81.59
2023-02-15T05:30:30.274Z,81.66
2023-02-15T05:33:06.959Z,81.77
2023-02-15T05:35:43.851Z,81.86
2023-02-15T05:38:20.140Z,81.66
2023-02-15T05:40:57.989Z,81.67
2023-02-15T05:43:34.969Z,81.67
2023-02-15T05:46:12.294Z,81.67
2023-02-15T05:48:48.600Z,81.57
2023-02-15T05:51:25.300Z,81.67
2023-02-15T05:54:01.518Z,81.87
2023-02-15T05:56:37.721Z,81.87
2023-02-15T05:59:14.378Z,81.89
2023-02-15T06:01:50.647Z,81.90
2023-02-15T06:04:27.211Z,81.92
2023-02-15T06:07:03.703Z,81.93
2023-02-15T06:09:40.153Z,81.92
2023-02-15T06:12:16.431Z,81.87
2023-02-15T06:14:52.807Z,81.84
2023-02-15T06:17:29.498Z,81.87
2023-02-15T06:20:07.935Z,81.80
2023-02-15T06:22:44.401Z,81.80
2023-02-15T06:25:22.021Z,81.84
2023-02-15T06:27:58.361Z,81.97
2023-02-15T06:30:35.602Z,81.95
2023-02-15T06:33:11.850Z,81.97
2023-02-15T06:35:48.612Z,82.06
2023-02-15T06:38:24.944Z,82.04
2023-02-15T06:41:01.384Z,81.98
2023-02-15T06:43:39.987Z,81.88
2023-02-15T06:46:17.315Z,81.86
2023-02-15T06:48:53.852Z,81.68
2023-02-15T06:51:30.173Z,81.60
2023-02-15T06:54:06.727Z,81.49
2023-02-15T06:56:43.248Z,81.56
2023-02-15T06:59:19.958Z,81.59
2023-02-15T07:01:56.556Z,81.64
2023-02-15T07:04:32.941Z,81.48
2023-02-15T07:07:12.594Z,81.25
2023-02-15T07:09:48.963Z,81.29
2023-02-15T07:12:43.864Z,81.14
2023-02-15T07:15:23.170Z,81.12
2023-02-15T07:18:00.881Z,81.10
2023-02-15T07:20:37.964Z,81.03
2023-02-15T07:23:14.263Z,81.04
2023-02-15T07:25:50.592Z,80.97
2023-02-15T07:28:27.162Z,80.89
2023-02-15T07:31:04.965Z,80.69
2023-02-15T07:33:41.515Z,80.70
2023-02-15T07:36:17.822Z,80.58
2023-02-15T07:38:54.265Z,80.21
2023-02-15T07:41:30.530Z,80.09
2023-02-15T07:44:07.403Z,80.05
2023-02-15T07:46:44.145Z,80.04
2023-02-15T07:49:21.051Z,79.94
2023-02-15T07:51:57.531Z,79.81
2023-02-15T07:54:34.286Z,79.85
2023-02-15T07:57:10.667Z,79.75
2023-02-15T07:59:47.033Z,79.69
2023-02-15T08:02:23.616Z,79.51
2023-02-15T08:05:00.102Z,79.55
2023-02-15T08:07:36.799Z,79.40
2023-02-15T08:10:34.711Z,79.31
2023-02-15T08:13:11.101Z,79.21
2023-02-15T08:15:53.833Z,79.09
2023-02-15T08:18:30.260Z,78.78
2023-02-15T08:21:07.436Z,78.61
2023-02-15T08:23:43.707Z,78.32
2023-02-15T08:26:20.333Z,78.49
2023-02-15T08:28:57.527Z,78.51
2023-02-15T08:31:34.090Z,78.44
2023-02-15T08:34:12.575Z,78.18
2023-02-15T08:36:49.487Z,77.92
2023-02-15T08:39:26.275Z,77.42
2023-02-15T08:42:05.028Z,76.80
2023-02-15T08:44:41.755Z,77.09
2023-02-15T08:47:18.083Z,76.85
2023-02-15T08:49:55.065Z,76.52
2023-02-15T08:52:31.731Z,76.22
2023-02-15T08:55:09.444Z,75.83
2023-02-15T08:57:47.019Z,75.78
2023-02-15T09:00:26.163Z,75.89
2023-02-15T09:03:02.501Z,75.15
2023-02-15T09:05:39.006Z,75.05
2023-02-15T09:08:15.502Z,75.01
2023-02-15T09:10:51.777Z,74.59
2023-02-15T09:13:28.273Z,73.71
2023-02-15T09:16:11.399Z,73.32
2023-02-15T09:18:48.503Z,73.08
2023-02-15T09:21:27.530Z,73.15
2023-02-15T09:24:08.975Z,72.38
2023-02-15T09:26:50.157Z,72.80
2023-02-15T09:29:26.629Z,71.68
2023-02-15T09:32:02.917Z,71.31
2023-02-15T09:34:39.509Z,71.77
2023-02-15T09:37:15.740Z,71.37
2023-02-15T09:39:52.072Z,70.56
2023-02-15T09:43:00.385Z,71.41
2023-02-15T09:46:08.736Z,70.26
2023-02-15T09:48:54.557Z,70.25
2023-02-15T09:52:28.847Z,69.08
2023-02-15T09:55:27.062Z,69.87
2023-02-15T09:58:19.014Z,70.00
2023-02-15T10:01:07.485Z,68.95
2023-02-15T10:04:23.180Z,68.93
2023-02-15T10:07:12.908Z,69.11
2023-02-15T10:10:12.361Z,69.39
2023-02-15T10:13:20.258Z,69.82
2023-02-15T10:16:17.774Z,70.22
2023-02-15T10:19:06.998Z,69.74
2023-02-15T10:22:05.713Z,69.73
2023-02-15T10:25:14.783Z,70.40
2023-02-15T10:27:53.957Z,70.24
2023-02-15T10:30:42.485Z,70.40
2023-02-15T10:33:42.554Z,70.52
2023-02-15T10:36:50.240Z,70.99
2023-02-15T10:39:40.728Z,70.73
2023-02-15T10:42:32.906Z,71.04
2023-02-15T10:45:23.458Z,71.72
2023-02-15T10:48:24.893Z,71.62
2023-02-15T10:51:05.284Z,71.64
2023-02-15T10:54:08.958Z,71.67
2023-02-15T10:56:58.598Z,71.98
2023-02-15T11:00:00.693Z,71.95
2023-02-15T11:02:59.271Z,72.21
2023-02-15T11:05:57.331Z,72.26
2023-02-15T11:08:37.825Z,72.35
2023-02-15T11:11:22.911Z,72.43
2023-02-15T11:14:07.767Z,72.42
2023-02-15T11:16:52.662Z,72.39
2023-02-15T11:19:36.787Z,72.31
2023-02-15T11:22:17.763Z,72.20
2023-02-15T11:24:58.645Z,72.20
2023-02-15T11:27:37.193Z,71.92
2023-02-15T11:30:24.771Z,72.48
2023-02-15T11:33:07.700Z,72.82
2023-02-15T11:35:55.989Z,72.38
2023-02-15T11:38:36.576Z,71.93
2023-02-15T11:41:17.998Z,72.19
2023-02-15T11:44:07.167Z,72.35
2023-02-15T11:46:43.896Z,72.14
2023-02-15T11:49:36.268Z,72.06
2023-02-15T11:52:19.624Z,71.76
2023-02-15T11:54:57.348Z,71.76
2023-02-15T11:57:42.888Z,71.70
2023-02-15T12:00:36.889Z,71.75
2023-02-15T12:03:29.371Z,72.24
2023-02-15T12:06:15.329Z,72.50
2023-02-15T12:09:02.509Z,72.17
2023-02-15T12:11:46.035Z,72.33
2023-02-15T12:14:22.503Z,71.62
2023-02-15T12:17:00.732Z,71.30
2023-02-15T12:19:42.692Z,71.43
2023-02-15T12:22:30.465Z,71.47
2023-02-15T12:25:25.486Z,71.34
2023-02-15T12:28:02.134Z,71.72
2023-02-15T12:30:45.069Z,71.36
2023-02-15T12:33:34.824Z,71.38
2023-02-15T12:36:24.915Z,70.67
2023-02-15T12:39:30.144Z,70.68
2023-02-15T12:42:21.091Z,70.86
2023-02-15T12:45:23.235Z,70.93
2023-02-15T12:48:19.139Z,70.91
2023-02-15T12:51:11.601Z,70.94
2023-02-15T12:53:48.086Z,71.15
2023-02-15T12:56:31.480Z,71.17
2023-02-15T12:59:23.158Z,71.10
2023-02-15T13:02:04.179Z,71.18
2023-02-15T13:04:49.904Z,71.36
2023-02-15T13:07:33.067Z,70.83
2023-02-15T13:10:25.629Z,70.72
2023-02-15T13:13:04.075Z,70.97
2023-02-15T13:15:48.268Z,71.04
2023-02-15T13:18:36.470Z,71.27
2023-02-15T13:21:21.314Z,71.69
2023-02-15T13:24:04.892Z,71.26
2023-02-15T13:26:45.824Z,71.12
2023-02-15T13:29:30.113Z,71.13
2023-02-15T13:32:23.434Z,71.33
2023-02-15T13:35:06.424Z,71.45
2023-02-15T13:38:27.902Z,71.43
2023-02-15T13:41:13.599Z,71.27
2023-02-15T13:44:06.370Z,71.52
2023-02-15T13:47:08.026Z,71.83
2023-02-15T13:50:06.714Z,71.48
2023-02-15T13:52:59.166Z,71.28
2023-02-15T13:55:46.619Z,71.55
2023-02-15T13:58:57.267Z,71.78
2023-02-15T14:01:46.472Z,71.99
2023-02-15T14:05:00.764Z,71.97
2023-02-15T14:07:58.669Z,72.20
2023-02-15T14:10:59.709Z,71.99
2023-02-15T14:14:14.111Z,72.01
2023-02-15T14:17:07.062Z,72.19
2023-02-15T14:19:54.823Z,72.27
2023-02-15T14:22:41.991Z,72.22
2023-02-15T14:25:37.818Z,72.41
2023-02-15T14:28:24.920Z,72.56
2023-02-15T14:31:02.936Z,72.84
2023-02-15T14:33:49.619Z,72.65
2023-02-15T14:36:27.894Z,72.67
2023-02-15T14:39:42.893Z,72.72
2023-02-15T14:42:33.766Z,72.99
2023-02-15T14:45:27.403Z,72.97
2023-02-15T14:48:15.471Z,73.12
2023-02-15T14:50:53.336Z,73.01
2023-02-15T14:53:45.496Z,73.08
2023-02-15T14:56:34.480Z,73.27
2023-02-15T14:59:27.939Z,73.48
2023-02-15T15:02:19.405Z,73.53
2023-02-15T15:05:11.927Z,73.55
2023-02-15T15:07:54.830Z,73.55
2023-02-15T15:10:50.227Z,73.61
2023-02-15T15:14:05.219Z,73.75
2023-02-15T15:16:57.670Z,73.91
2023-02-15T15:20:09.398Z,74.36
2023-02-15T15:22:48.497Z,74.67
2023-02-15T15:25:50.047Z,75.07
2023-02-15T15:29:03.501Z,75.43
2023-02-15T15:31:57.829Z,75.71
2023-02-15T15:35:17.514Z,76.06
2023-02-15T15:38:56.459Z,76.64
2023-02-15T15:42:03.398Z,77.02
2023-02-15T15:45:26.905Z,77.56
2023-02-15T15:48:39.154Z,78.06
2023-02-15T15:51:22.547Z,78.22
2023-02-15T15:53:59.643Z,78.08
2023-02-15T15:56:39.653Z,78.63
2023-02-15T15:59:28.595Z,79.10
2023-02-15T16:02:16.551Z,79.46
2023-02-15T16:04:53.124Z,79.64
2023-02-15T16:07:31.954Z,80.11
2023-02-15T16:10:24.813Z,80.26
2023-02-15T16:13:01.164Z,80.50
2023-02-15T16:15:50.671Z,80.72
2023-02-15T16:18:30.995Z,80.94
2023-02-15T16:21:16.462Z,81.09
2023-02-15T16:24:45.775Z,81.29
2023-02-15T16:27:41.807Z,81.36
2023-02-15T16:30:45.602Z,81.49
2023-02-15T16:33:22.693Z,81.68
2023-02-15T16:36:04.378Z,81.86
2023-02-15T16:39:12.084Z,82.04
2023-02-15T16:41:49.534Z,81.86
2023-02-15T16:44:27.470Z,82.13
2023-02-15T16:47:04.788Z,82.41
2023-02-15T16:49:45.831Z,82.63
2023-02-15T16:52:27.790Z,82.76
2023-02-15T16:55:05.726Z,82.92
2023-02-15T16:57:47.417Z,82.77
2023-02-15T17:00:32.806Z,83.03
2023-02-15T17:03:25.241Z,83.31
2023-02-15T17:06:04.482Z,83.60
2023-02-15T17:08:48.210Z,83.82
2023-02-15T17:11:38.571Z,84.07
2023-02-15T17:14:42.135Z,84.35
2023-02-15T17:17:22.782Z,84.56
2023-02-15T17:20:00.544Z,84.75
2023-02-15T17:22:41.647Z,84.93
2023-02-15T17:25:34.105Z,85.11
2023-02-15T17:28:23.506Z,85.23
2023-02-15T17:31:01.957Z,85.37
2023-02-15T17:33:44.410Z,85.48
2023-02-15T17:36:25.373Z,85.67
2023-02-15T17:39:24.666Z,85.83
2023-02-15T17:42:00.914Z,85.91
2023-02-15T17:44:37.400Z,86.02
2023-02-15T17:47:21.673Z,86.13
2023-02-15T17:49:58.631Z,86.22
2023-02-15T17:52:38.378Z,86.28
2023-02-15T17:55:40.170Z,86.44
2023-02-15T17:58:20.196Z,86.53
2023-02-15T18:01:19.804Z,86.58
2023-02-15T18:04:15.185Z,86.64
2023-02-15T18:07:09.642Z,86.69
2023-02-15T18:10:03.607Z,86.73
2023-02-15T18:12:41.507Z,86.78
2023-02-15T18:15:17.990Z,86.84
2023-02-15T18:17:54.379Z,86.95
2023-02-15T18:20:37.312Z,87.05
2023-02-15T18:23:17.973Z,87.15
2023-02-15T18:25:54.398Z,87.21
2023-02-15T18:28:30.763Z,87.28
2023-02-15T18:31:07.844Z,87.34
2023-02-15T18:33:49.521Z,87.39
2023-02-15T18:36:32.709Z,87.43
2023-02-15T18:39:25.564Z,87.46
2023-02-15T18:42:03.384Z,87.49
2023-02-15T18:44:39.761Z,87.50
2023-02-15T18:47:16.325Z,87.54
2023-02-15T18:49:53.202Z,87.57
2023-02-15T18:52:36.268Z,87.59
2023-02-15T18:55:29.263Z,87.62
2023-02-15T18:58:06.225Z,87.66
2023-02-15T19:00:43.540Z,87.71
2023-02-15T19:03:20.687Z,87.79
2023-02-15T19:05:57.385Z,87.88
2023-02-15T19:08:33.961Z,87.95
2023-02-15T19:11:16.887Z,88.03
2023-02-15T19:13:54.357Z,88.10
2023-02-15T19:16:38.447Z,88.17
2023-02-15T19:19:14.895Z,88.22
2023-02-15T19:21:52.074Z,88.28
2023-02-15T19:24:38.122Z,88.29
2023-02-15T19:27:27.435Z,88.28
2023-02-15T19:30:09.854Z,88.32
2023-02-15T19:32:47.514Z,88.36
2023-02-15T19:35:28.098Z,88.42
2023-02-15T19:38:09.866Z,88.47
2023-02-15T19:40:45.209Z,88.52
2023-02-15T19:43:26.416Z,88.50
2023-02-15T19:46:03.911Z,88.56
2023-02-15T19:48:40.350Z,88.61
2023-02-15T19:51:17.961Z,88.67
2023-02-15T19:53:55.673Z,88.73
2023-02-15T19:56:33.284Z,88.78
2023-02-15T19:59:27.152Z,88.82
2023-02-15T20:02:03.872Z,88.83
2023-02-15T20:04:40.988Z,88.86
2023-02-15T20:07:29.436Z,88.88
2023-02-15T20:10:14.828Z,88.91
2023-02-15T20:12:51.829Z,88.94
2023-02-15T20:15:32.038Z,88.96
2023-02-15T20:18:08.992Z,89.01
2023-02-15T20:20:50.561Z,89.04
2023-02-15T20:23:31.656Z,89.10
2023-02-15T20:26:18.705Z,89.13
2023-02-15T20:28:55.503Z,89.15
2023-02-15T20:31:33.017Z,89.19
2023-02-15T20:34:10.019Z,89.20
2023-02-15T20:36:46.790Z,89.21
2023-02-15T20:39:23.750Z,89.25
2023-02-15T20:42:00.411Z,89.30
2023-02-15T20:44:37.562Z,89.38
2023-02-15T20:47:14.296Z,89.47
2023-02-15T20:49:51.466Z,89.53
2023-02-15T20:52:27.905Z,89.57
2023-02-15T20:55:04.604Z,89.63
2023-02-15T20:57:41.003Z,89.68
2023-02-15T21:00:25.713Z,89.72
2023-02-15T21:03:12.443Z,89.74
2023-02-15T21:05:49.821Z,89.77
2023-02-15T21:08:28.503Z,89.80
2023-02-15T21:11:05.653Z,89.83
2023-02-15T21:13:43.015Z,89.85
2023-02-15T21:16:20.367Z,89.87
2023-02-15T21:18:56.978Z,89.90
2023-02-15T21:21:33.431Z,89.91
2023-02-15T21:24:16.767Z,89.91
2023-02-15T21:26:53.991Z,89.92
2023-02-15T21:29:32.836Z,89.94
2023-02-15T21:32:11.043Z,89.95
2023-02-15T21:34:48.066Z,89.97
2023-02-15T21:37:38.025Z,89.98
2023-02-15T21:40:30.930Z,89.99
2023-02-15T21:43:30.285Z,90.00
2023-02-15T21:46:34.519Z,89.99
2023-02-15T21:49:11.455Z,89.99
2023-02-15T21:52:05.337Z,90.02
2023-02-15T21:54:42.001Z,90.04
2023-02-15T21:57:22.381Z,90.07
2023-02-15T21:59:58.853Z,90.08
2023-02-15T22:02:36.312Z,90.09
2023-02-15T22:05:22.442Z,90.11
2023-02-15T22:07:58.763Z,90.14
2023-02-15T22:10:36.691Z,90.17
2023-02-15T22:13:22.305Z,90.22
2023-02-15T22:15:59.778Z,90.26
2023-02-15T22:18:37.599Z,90.29
2023-02-15T22:21:16.671Z,90.33
2023-02-15T22:23:52.986Z,90.36
2023-02-15T22:26:31.297Z,90.39
2023-02-15T22:29:08.462Z,90.44
2023-02-15T22:31:45.255Z,90.47
2023-02-15T22:34:34.246Z,90.50
2023-02-15T22:37:11.850Z,90.53
2023-02-15T22:39:50.638Z,90.56
2023-02-15T22:42:31.003Z,90.59
2023-02-15T22:45:08.252Z,90.61
2023-02-15T22:47:44.874Z,90.63
2023-02-15T22:50:26.473Z,90.67
2023-02-15T22:53:05.126Z,90.69
2023-02-15T22:55:43.001Z,90.70
2023-02-15T22:58:26.166Z,90.71
2023-02-15T23:01:03.870Z,90.69
2023-02-15T23:03:40.605Z,90.69
2023-02-15T23:06:18.632Z,90.68
2023-02-15T23:08:54.909Z,90.69
2023-02-15T23:11:31.528Z,90.70
2023-02-15T23:14:07.853Z,90.69
2023-02-15T23:16:44.275Z,90.71
2023-02-15T23:19:20.838Z,90.71
2023-02-15T23:21:57.693Z,90.72
2023-02-15T23:24:35.628Z,90.73
2023-02-15T23:27:36.594Z,90.74
2023-02-15T23:30:20.111Z,90.75
2023-02-15T23:33:02.805Z,90.78
2023-02-15T23:35:39.046Z,90.82
2023-02-15T23:38:31.296Z,90.86
2023-02-15T23:41:20.934Z,90.89
2023-02-15T23:44:05.464Z,91.67
2023-02-15T23:46:47.239Z,91.77
2023-02-15T23:49:24.760Z,91.38
2023-02-15T23:52:02.113Z,91.19
2023-02-15T23:54:38.794Z,91.08
2023-02-15T23:57:17.484Z,91.00
2023-02-15T23:59:54.312Z,90.95
